createdAt,value
2023-04-20T00:00:53.469Z,16.43
2023-04-20T00:01:59.580Z,16.44
2023-04-20T00:03:04.117Z,16.43
2023-04-20T00:04:07.875Z,16.44
2023-04-20T00:05:11.687Z,16.41
2023-04-20T00:06:16.519Z,16.35
2023-04-20T00:07:20.549Z,16.31
2023-04-20T00:08:24.262Z,16.26
2023-04-20T00:09:29.035Z,16.27
2023-04-20T00:10:32.523Z,16.27
2023-04-20T00:11:36.326Z,16.26
2023-04-20T00:12:40.237Z,16.24
2023-04-20T00:13:44.214Z,16.27
2023-04-20T00:14:48.188Z,16.26
2023-04-20T00:15:52.360Z,16.27
2023-04-20T00:16:56.073Z,16.29
2023-04-20T00:17:59.440Z,16.28
2023-04-20T00:19:03.521Z,16.36
2023-04-20T00:20:09.022Z,16.42
2023-04-20T00:21:12.491Z,16.43
2023-04-20T00:22:16.600Z,16.47
2023-04-20T00:23:19.965Z,16.50
2023-04-20T00:24:23.736Z,16.52
2023-04-20T00:25:27.318Z,16.54
2023-04-20T00:26:31.189Z,16.55
2023-04-20T00:27:34.779Z,16.56
2023-04-20T00:28:38.569Z,16.57
2023-04-20T00:29:44.197Z,16.59
2023-04-20T00:30:48.283Z,16.60
2023-04-20T00:31:51.963Z,16.61
2023-04-20T00:32:55.791Z,16.62
2023-04-20T00:34:00.160Z,16.60
2023-04-20T00:35:04.090Z,16.61
2023-04-20T00:36:07.870Z,16.63
2023-04-20T00:37:12.459Z,16.65
2023-04-20T00:38:16.361Z,16.66
2023-04-20T00:39:20.142Z,16.67
2023-04-20T00:40:23.573Z,16.66
2023-04-20T00:41:27.020Z,16.68
2023-04-20T00:42:31.370Z,16.70
2023-04-20T00:43:35.061Z,16.70
2023-04-20T00:44:38.484Z,16.70
2023-04-20T00:45:42.505Z,16.71
2023-04-20T00:46:47.120Z,16.73
2023-04-20T00:47:52.533Z,16.75
2023-04-20T00:48:57.287Z,16.71
2023-04-20T00:50:01.047Z,16.71
2023-04-20T00:51:05.092Z,16.73
2023-04-20T00:52:08.558Z,16.73
2023-04-20T00:53:12.097Z,16.73
2023-04-20T00:54:15.838Z,16.69
2023-04-20T00:55:20.602Z,16.66
2023-04-20T00:56:24.352Z,16.67
2023-04-20T00:57:28.267Z,16.66
2023-04-20T00:58:31.977Z,16.62
2023-04-20T00:59:36.135Z,16.61
2023-04-20T01:00:41.569Z,16.59
2023-04-20T01:01:46.653Z,16.56
2023-04-20T01:02:51.465Z,16.57
2023-04-20T01:03:55.747Z,16.57
2023-04-20T01:04:59.282Z,16.57
2023-04-20T01:06:07.023Z,16.59
2023-04-20T01:07:10.510Z,16.58
2023-04-20T01:08:14.296Z,16.59
2023-04-20T01:09:18.773Z,16.63
2023-04-20T01:10:22.092Z,16.63
2023-04-20T01:11:25.628Z,16.66
2023-04-20T01:12:29.637Z,16.68
2023-04-20T01:13:33.149Z,16.67
2023-04-20T01:14:36.603Z,16.65
2023-04-20T01:15:40.107Z,16.67
2023-04-20T01:16:45.557Z,16.67
2023-04-20T01:17:50.338Z,16.67
2023-04-20T01:18:53.922Z,16.69
2023-04-20T01:19:57.461Z,16.65
2023-04-20T01:21:01.642Z,16.70
2023-04-20T01:22:05.618Z,16.72
2023-04-20T01:23:09.354Z,16.67
2023-04-20T01:24:12.974Z,16.70
2023-04-20T01:25:17.433Z,16.68
2023-04-20T01:26:22.391Z,16.67
2023-04-20T01:27:27.502Z,16.65
2023-04-20T01:28:31.974Z,16.66
2023-04-20T01:29:36.502Z,16.68
2023-04-20T01:30:39.656Z,16.68
2023-04-20T01:31:43.637Z,16.69
2023-04-20T01:32:47.616Z,16.69
2023-04-20T01:33:52.367Z,16.68
2023-04-20T01:34:57.443Z,16.69
2023-04-20T01:36:01.266Z,16.69
2023-04-20T01:37:08.659Z,16.68
2023-04-20T01:38:18.120Z,16.67
2023-04-20T01:39:21.489Z,16.67
2023-04-20T01:40:25.084Z,16.67
2023-04-20T01:41:28.641Z,16.69
2023-04-20T01:42:33.224Z,16.69
2023-04-20T01:43:37.263Z,16.69
2023-04-20T01:44:41.095Z,16.70
2023-04-20T01:45:45.054Z,16.70
2023-04-20T01:46:49.443Z,16.72
2023-04-20T01:47:53.346Z,16.69
2023-04-20T01:48:57.060Z,16.71
2023-04-20T01:50:00.755Z,16.70
2023-04-20T01:51:04.728Z,16.71
2023-04-20T01:52:10.128Z,16.67
2023-04-20T01:53:14.654Z,16.67
2023-04-20T01:54:18.460Z,16.65
2023-04-20T01:55:22.284Z,16.65
2023-04-20T01:56:25.952Z,16.66
2023-04-20T01:57:29.506Z,16.67
2023-04-20T01:58:32.840Z,16.67
2023-04-20T01:59:36.613Z,16.66
2023-04-20T02:00:40.347Z,16.66
2023-04-20T02:01:45.012Z,16.68
2023-04-20T02:02:48.552Z,16.67
2023-04-20T02:03:53.089Z,16.66
2023-04-20T02:04:57.766Z,16.68
2023-04-20T02:06:01.826Z,16.66
2023-04-20T02:07:06.370Z,16.70
2023-04-20T02:08:10.637Z,16.71
2023-04-20T02:09:16.597Z,16.70
2023-04-20T02:10:20.629Z,16.69
2023-04-20T02:11:24.301Z,16.71
2023-04-20T02:12:28.014Z,16.71
2023-04-20T02:13:32.239Z,16.69
2023-04-20T02:14:35.578Z,16.68
2023-04-20T02:15:39.203Z,16.68
2023-04-20T02:16:43.737Z,16.70
2023-04-20T02:17:48.093Z,16.69
2023-04-20T02:18:52.005Z,16.70
2023-04-20T02:19:55.486Z,16.70
2023-04-20T02:20:59.488Z,16.67
2023-04-20T02:22:03.012Z,16.69
2023-04-20T02:23:06.513Z,16.66
2023-04-20T02:24:12.367Z,16.68
2023-04-20T02:25:16.083Z,16.66
2023-04-20T02:26:20.126Z,16.67
2023-04-20T02:27:23.725Z,16.67
2023-04-20T02:28:27.384Z,16.63
2023-04-20T02:29:31.074Z,16.60
2023-04-20T02:30:34.938Z,16.59
2023-04-20T02:31:39.079Z,16.57
2023-04-20T02:32:42.793Z,16.60
2023-04-20T02:33:48.685Z,16.56
2023-04-20T02:34:52.378Z,16.58
2023-04-20T02:35:56.443Z,16.59
2023-04-20T02:37:00.407Z,16.60
2023-04-20T02:38:04.057Z,16.59
2023-04-20T02:39:08.267Z,16.57
2023-04-20T02:40:12.298Z,16.58
2023-04-20T02:41:16.287Z,16.57
2023-04-20T02:42:20.156Z,16.57
2023-04-20T02:43:25.372Z,16.58
2023-04-20T02:44:30.085Z,16.56
2023-04-20T02:45:33.889Z,16.59
2023-04-20T02:46:37.949Z,16.57
2023-04-20T02:47:42.669Z,16.61
2023-04-20T02:48:48.476Z,16.60
2023-04-20T02:49:51.931Z,16.61
2023-04-20T02:50:58.652Z,16.60
2023-04-20T02:52:05.188Z,16.61
2023-04-20T02:53:09.214Z,16.62
2023-04-20T02:54:13.534Z,16.61
2023-04-20T02:55:17.184Z,16.60
2023-04-20T02:56:24.785Z,16.62
2023-04-20T02:57:32.056Z,16.63
2023-04-20T02:58:37.099Z,16.60
2023-04-20T02:59:51.032Z,16.62
2023-04-20T03:01:02.183Z,16.62
2023-04-20T03:02:06.826Z,16.60
2023-04-20T03:03:11.501Z,16.61
2023-04-20T03:04:15.948Z,16.60
2023-04-20T03:05:27.597Z,16.58
2023-04-20T03:06:33.271Z,16.54
2023-04-20T03:07:37.326Z,16.57
2023-04-20T03:08:41.904Z,16.56
2023-04-20T03:10:20.782Z,16.55
2023-04-20T03:11:35.387Z,16.57
2023-04-20T03:12:39.439Z,16.58
2023-04-20T03:14:01.988Z,16.57
2023-04-20T03:15:09.069Z,16.59
2023-04-20T03:16:23.502Z,16.57
2023-04-20T03:17:29.509Z,16.57
2023-04-20T03:18:33.517Z,16.56
2023-04-20T03:19:37.498Z,16.56
2023-04-20T03:20:42.348Z,16.53
2023-04-20T03:21:46.693Z,16.55
2023-04-20T03:22:50.343Z,16.54
2023-04-20T03:23:56.126Z,16.54
2023-04-20T03:25:00.416Z,16.53
2023-04-20T03:26:30.332Z,16.53
2023-04-20T03:27:54.071Z,16.52
2023-04-20T03:28:58.392Z,16.52
2023-04-20T03:30:03.318Z,16.54
2023-04-20T03:31:07.969Z,16.48
2023-04-20T03:32:11.926Z,16.45
2023-04-20T03:33:15.551Z,16.44
2023-04-20T03:34:18.901Z,16.42
2023-04-20T03:35:22.418Z,16.43
2023-04-20T03:36:26.038Z,16.41
2023-04-20T03:37:29.409Z,16.38
2023-04-20T03:38:32.773Z,16.38
2023-04-20T03:39:36.037Z,16.34
2023-04-20T03:40:40.340Z,16.32
2023-04-20T03:41:43.932Z,16.26
2023-04-20T03:42:47.225Z,16.26
2023-04-20T03:43:51.095Z,16.23
2023-04-20T03:44:54.930Z,16.20
2023-04-20T03:45:58.545Z,16.20
2023-04-20T03:47:02.009Z,16.20
2023-04-20T03:48:05.945Z,16.19
2023-04-20T03:49:10.140Z,16.20
2023-04-20T03:50:16.272Z,16.18
2023-04-20T03:51:19.710Z,16.17
2023-04-20T03:52:23.752Z,16.16
2023-04-20T03:53:29.613Z,16.14
2023-04-20T03:54:33.385Z,16.15
2023-04-20T03:55:36.754Z,16.14
2023-04-20T03:56:45.608Z,16.14
2023-04-20T03:57:50.530Z,16.18
2023-04-20T03:58:54.808Z,16.19
2023-04-20T04:00:01.559Z,16.18
2023-04-20T04:01:11.410Z,16.18
2023-04-20T04:02:18.906Z,16.15
2023-04-20T04:03:24.043Z,16.17
2023-04-20T04:04:27.593Z,16.18
2023-04-20T04:05:31.293Z,16.16
2023-04-20T04:06:34.534Z,16.20
2023-04-20T04:07:37.523Z,16.19
2023-04-20T04:08:41.706Z,16.23
2023-04-20T04:09:45.096Z,16.24
2023-04-20T04:10:49.536Z,16.25
2023-04-20T04:11:53.704Z,16.26
2023-04-20T04:12:58.568Z,16.26
2023-04-20T04:14:02.130Z,16.25
2023-04-20T04:15:06.000Z,16.25
2023-04-20T04:16:13.787Z,16.20
2023-04-20T04:17:17.376Z,16.15
2023-04-20T04:18:22.680Z,16.12
2023-04-20T04:19:27.751Z,16.09
2023-04-20T04:20:31.906Z,16.07
2023-04-20T04:21:36.438Z,16.06
2023-04-20T04:22:42.270Z,16.05
2023-04-20T04:24:22.662Z,16.03
2023-04-20T04:25:42.414Z,16.04
2023-04-20T04:26:48.187Z,16.02
2023-04-20T04:27:51.828Z,16.02
2023-04-20T04:28:55.868Z,16.01
2023-04-20T04:29:59.235Z,16.02
2023-04-20T04:31:02.772Z,16.04
2023-04-20T04:32:07.328Z,16.04
2023-04-20T04:33:12.717Z,16.06
2023-04-20T04:34:21.414Z,16.07
2023-04-20T04:35:28.108Z,16.08
2023-04-20T04:36:33.289Z,16.07
2023-04-20T04:37:38.069Z,16.06
2023-04-20T04:38:45.600Z,16.04
2023-04-20T04:39:51.777Z,16.04
2023-04-20T04:40:59.693Z,16.02
2023-04-20T04:42:04.945Z,15.99
2023-04-20T04:43:17.097Z,15.97
2023-04-20T04:44:29.326Z,15.94
2023-04-20T04:45:32.851Z,15.89
2023-04-20T04:46:37.324Z,15.88
2023-04-20T04:47:43.125Z,15.88
2023-04-20T04:48:47.361Z,15.87
2023-04-20T04:49:51.129Z,15.86
2023-04-20T04:50:54.547Z,15.85
2023-04-20T04:51:58.097Z,15.83
2023-04-20T04:53:01.888Z,15.80
2023-04-20T04:54:05.371Z,15.80
2023-04-20T04:55:10.159Z,15.79
2023-04-20T04:56:14.407Z,15.78
2023-04-20T04:57:18.440Z,15.81
2023-04-20T04:58:21.903Z,15.79
2023-04-20T04:59:26.122Z,15.82
2023-04-20T05:00:30.407Z,15.85
2023-04-20T05:01:33.899Z,15.87
2023-04-20T05:02:37.750Z,15.88
2023-04-20T05:03:41.919Z,15.90
2023-04-20T05:04:46.119Z,15.88
2023-04-20T05:05:49.900Z,15.94
2023-04-20T05:06:53.472Z,15.94
2023-04-20T05:07:57.328Z,15.92
2023-04-20T05:09:00.799Z,15.96
2023-04-20T05:10:05.164Z,15.96
2023-04-20T05:11:09.218Z,15.97
2023-04-20T05:12:13.264Z,15.97
2023-04-20T05:13:17.147Z,16.01
2023-04-20T05:14:21.307Z,15.98
2023-04-20T05:15:25.394Z,15.94
2023-04-20T05:16:29.246Z,15.94
2023-04-20T05:17:32.721Z,15.90
2023-04-20T05:18:36.800Z,15.89
2023-04-20T05:19:40.613Z,15.87
2023-04-20T05:20:44.605Z,15.84
2023-04-20T05:21:48.375Z,15.86
2023-04-20T05:22:51.628Z,15.83
2023-04-20T05:23:54.842Z,15.84
2023-04-20T05:24:58.506Z,15.81
2023-04-20T05:26:01.606Z,15.83
2023-04-20T05:27:05.426Z,15.84
2023-04-20T05:28:09.345Z,15.84
2023-04-20T05:29:12.853Z,15.84
2023-04-20T05:30:21.552Z,15.86
2023-04-20T05:31:26.989Z,15.89
2023-04-20T05:32:30.561Z,15.87
2023-04-20T05:33:34.282Z,15.91
2023-04-20T05:34:38.058Z,15.92
2023-04-20T05:35:42.135Z,15.90
2023-04-20T05:36:46.931Z,15.92
2023-04-20T05:37:50.562Z,15.86
2023-04-20T05:38:54.320Z,15.83
2023-04-20T05:39:57.668Z,15.80
2023-04-20T05:41:01.604Z,15.76
2023-04-20T05:42:05.536Z,15.74
2023-04-20T05:43:09.666Z,15.72
2023-04-20T05:44:13.988Z,15.71
2023-04-20T05:45:17.596Z,15.72
2023-04-20T05:46:21.300Z,15.72
2023-04-20T05:47:24.972Z,15.72
2023-04-20T05:48:30.064Z,15.72
2023-04-20T05:49:34.216Z,15.68
2023-04-20T05:50:37.989Z,15.64
2023-04-20T05:51:41.210Z,15.61
2023-04-20T05:52:45.100Z,15.62
2023-04-20T05:53:49.135Z,15.61
2023-04-20T05:54:53.287Z,15.60
2023-04-20T05:55:57.315Z,15.56
2023-04-20T05:57:01.129Z,15.56
2023-04-20T05:58:05.403Z,15.53
2023-04-20T05:59:08.938Z,15.52
2023-04-20T06:00:13.782Z,15.51
2023-04-20T06:01:18.049Z,15.49
2023-04-20T06:02:22.503Z,15.49
2023-04-20T06:03:26.780Z,15.49
2023-04-20T06:04:31.258Z,15.50
2023-04-20T06:05:35.355Z,15.49
2023-04-20T06:06:38.952Z,15.53
2023-04-20T06:07:42.279Z,15.57
2023-04-20T06:08:46.502Z,15.59
2023-04-20T06:09:49.854Z,15.61
2023-04-20T06:10:58.179Z,15.63
2023-04-20T06:12:03.563Z,15.65
2023-04-20T06:13:07.001Z,15.66
2023-04-20T06:14:13.010Z,15.68
2023-04-20T06:15:16.731Z,15.72
2023-04-20T06:16:20.527Z,15.73
2023-04-20T06:17:24.349Z,15.78
2023-04-20T06:18:27.663Z,15.80
2023-04-20T06:19:31.090Z,15.82
2023-04-20T06:20:34.676Z,15.84
2023-04-20T06:21:38.806Z,15.83
2023-04-20T06:22:46.020Z,15.82
2023-04-20T06:23:50.537Z,15.82
2023-04-20T06:24:54.393Z,15.82
2023-04-20T06:25:58.227Z,15.83
2023-04-20T06:27:02.759Z,15.82
2023-04-20T06:28:06.949Z,15.82
2023-04-20T06:29:10.778Z,15.85
2023-04-20T06:30:14.790Z,15.89
2023-04-20T06:31:18.333Z,15.93
2023-04-20T06:32:22.375Z,15.99
2023-04-20T06:33:25.895Z,16.04
2023-04-20T06:34:29.291Z,16.08
2023-04-20T06:35:33.004Z,16.10
2023-04-20T06:36:37.140Z,16.11
2023-04-20T06:37:41.675Z,16.14
2023-04-20T06:38:46.230Z,16.18
2023-04-20T06:39:50.190Z,16.22
2023-04-20T06:40:54.340Z,16.30
2023-04-20T06:41:59.411Z,16.39
2023-04-20T06:43:04.372Z,16.48
2023-04-20T06:44:07.538Z,16.63
2023-04-20T06:45:11.460Z,16.77
2023-04-20T06:46:15.621Z,16.89
2023-04-20T06:47:18.972Z,17.03
2023-04-20T06:48:30.956Z,17.15
2023-04-20T06:49:37.751Z,17.25
2023-04-20T06:50:41.270Z,17.34
2023-04-20T06:51:45.188Z,17.48
2023-04-20T06:52:49.116Z,17.59
2023-04-20T06:53:52.785Z,17.72
2023-04-20T06:54:56.567Z,17.88
2023-04-20T06:56:00.157Z,18.04
2023-04-20T06:57:04.057Z,18.44
2023-04-20T06:58:07.653Z,18.70
2023-04-20T06:59:10.859Z,18.87
2023-04-20T07:00:14.758Z,18.96
2023-04-20T07:01:18.802Z,19.07
2023-04-20T07:02:22.792Z,19.19
2023-04-20T07:03:26.559Z,19.73
2023-04-20T07:04:30.824Z,20.85
2023-04-20T07:05:34.569Z,22.10
2023-04-20T07:06:38.201Z,23.20
2023-04-20T07:07:42.317Z,24.03
2023-04-20T07:08:46.206Z,24.77
2023-04-20T07:09:50.387Z,25.36
2023-04-20T07:10:54.346Z,25.89
2023-04-20T07:11:57.857Z,26.57
2023-04-20T07:13:01.450Z,27.23
2023-04-20T07:14:05.354Z,27.46
2023-04-20T07:15:09.862Z,27.93
2023-04-20T07:16:13.358Z,28.16
2023-04-20T07:17:17.013Z,28.77
2023-04-20T07:18:20.643Z,29.33
2023-04-20T07:19:24.602Z,29.85
2023-04-20T07:20:28.601Z,29.96
2023-04-20T07:21:32.692Z,29.43
2023-04-20T07:22:39.786Z,29.05
2023-04-20T07:23:45.135Z,28.57
2023-04-20T07:24:49.004Z,27.92
2023-04-20T07:25:52.909Z,27.54
2023-04-20T07:26:56.402Z,27.22
2023-04-20T07:28:00.908Z,26.89
2023-04-20T07:29:04.606Z,26.58
2023-04-20T07:30:09.796Z,26.33
2023-04-20T07:31:13.343Z,26.26
2023-04-20T07:32:17.007Z,26.71
2023-04-20T07:33:22.127Z,26.50
2023-04-20T07:34:25.961Z,26.59
2023-04-20T07:35:29.539Z,26.24
2023-04-20T07:36:33.730Z,26.31
2023-04-20T07:37:37.189Z,26.38
2023-04-20T07:38:40.809Z,26.45
2023-04-20T07:39:44.240Z,26.43
2023-04-20T07:40:47.581Z,26.34
2023-04-20T07:41:51.677Z,26.34
2023-04-20T07:42:55.249Z,26.28
2023-04-20T07:43:58.453Z,26.01
2023-04-20T07:45:02.063Z,25.82
2023-04-20T07:46:06.278Z,25.68
2023-04-20T07:47:09.873Z,25.59
2023-04-20T07:48:14.124Z,25.80
2023-04-20T07:49:18.090Z,26.52
2023-04-20T07:50:22.350Z,26.73
2023-04-20T07:51:26.174Z,26.52
2023-04-20T07:52:30.187Z,26.42
2023-04-20T07:53:35.756Z,26.93
2023-04-20T07:54:39.241Z,27.64
2023-04-20T07:55:42.630Z,28.29
2023-04-20T07:56:46.539Z,29.10
2023-04-20T07:57:50.001Z,29.75
2023-04-20T07:58:53.779Z,30.36
2023-04-20T07:59:57.400Z,31.32
2023-04-20T08:01:00.646Z,32.08
2023-04-20T08:02:05.000Z,32.92
2023-04-20T08:03:09.161Z,33.37
2023-04-20T08:04:13.255Z,33.98
2023-04-20T08:05:17.445Z,34.43
2023-04-20T08:06:20.995Z,34.67
2023-04-20T08:07:24.772Z,34.16
2023-04-20T08:08:28.369Z,33.53
2023-04-20T08:09:33.033Z,32.58
2023-04-20T08:10:36.848Z,32.01
2023-04-20T08:11:40.508Z,32.18
2023-04-20T08:12:44.311Z,32.77
2023-04-20T08:13:48.194Z,32.89
2023-04-20T08:14:51.955Z,33.53
2023-04-20T08:15:55.983Z,33.93
2023-04-20T08:16:59.574Z,33.88
2023-04-20T08:18:02.856Z,33.76
2023-04-20T08:20:43.633Z,33.28
2023-04-20T08:21:47.629Z,33.76
2023-04-20T08:22:51.917Z,34.75
2023-04-20T08:23:55.943Z,35.08
2023-04-20T08:24:59.267Z,35.37
2023-04-20T08:26:03.292Z,36.11
2023-04-20T08:27:07.830Z,35.83
2023-04-20T08:28:19.170Z,36.62
2023-04-20T08:29:28.960Z,37.66
2023-04-20T08:30:32.521Z,38.06
2023-04-20T08:31:36.214Z,38.60
2023-04-20T08:32:40.618Z,38.84
2023-04-20T08:33:44.264Z,36.59
2023-04-20T08:34:47.627Z,37.12
2023-04-20T08:35:54.812Z,37.44
2023-04-20T08:36:58.725Z,38.03
2023-04-20T08:38:02.681Z,38.77
2023-04-20T08:39:12.156Z,39.40
2023-04-20T08:40:15.681Z,39.45
2023-04-20T08:41:19.096Z,39.44
2023-04-20T08:42:22.593Z,39.16
2023-04-20T08:43:25.854Z,38.53
2023-04-20T08:44:29.645Z,37.79
2023-04-20T08:45:33.085Z,37.26
2023-04-20T08:46:36.896Z,37.39
2023-04-20T08:47:40.753Z,37.65
2023-04-20T08:48:44.218Z,37.28
2023-04-20T08:49:47.726Z,37.07
2023-04-20T08:50:51.727Z,36.52
2023-04-20T08:51:54.909Z,36.30
2023-04-20T08:52:59.277Z,35.81
2023-04-20T08:54:08.264Z,35.69
2023-04-20T08:55:12.019Z,35.34
2023-04-20T08:56:17.062Z,35.19
2023-04-20T08:57:20.865Z,35.86
2023-04-20T08:58:33.073Z,36.51
2023-04-20T08:59:38.018Z,37.28
2023-04-20T09:00:48.840Z,37.64
2023-04-20T09:01:52.071Z,38.23
2023-04-20T09:02:56.825Z,38.90
2023-04-20T09:04:01.548Z,39.29
2023-04-20T09:05:06.172Z,39.52
2023-04-20T09:06:20.089Z,40.11
2023-04-20T09:07:24.691Z,40.62
2023-04-20T09:08:38.582Z,41.18
2023-04-20T09:09:41.958Z,41.24
2023-04-20T09:10:45.848Z,41.64
2023-04-20T09:11:49.850Z,41.80
2023-04-20T09:12:53.603Z,42.06
2023-04-20T09:14:17.220Z,42.17
2023-04-20T09:15:31.785Z,42.42
2023-04-20T09:16:40.019Z,42.45
2023-04-20T09:17:43.675Z,42.55
2023-04-20T09:18:55.002Z,42.55
2023-04-20T09:19:58.535Z,42.66
2023-04-20T09:21:11.534Z,42.33
2023-04-20T09:22:14.715Z,42.47
2023-04-20T09:23:19.251Z,42.33
2023-04-20T09:24:23.398Z,42.51
2023-04-20T09:25:28.902Z,42.69
2023-04-20T09:26:36.870Z,42.79
2023-04-20T09:27:40.940Z,42.81
2023-04-20T09:28:44.750Z,42.60
2023-04-20T09:30:01.616Z,42.57
2023-04-20T09:31:04.676Z,42.85
2023-04-20T09:32:08.782Z,42.92
2023-04-20T09:33:13.408Z,42.91
2023-04-20T09:34:17.068Z,42.74
2023-04-20T09:35:25.066Z,41.30
2023-04-20T09:36:39.637Z,41.84
2023-04-20T09:37:52.310Z,42.38
2023-04-20T09:39:05.851Z,42.79
2023-04-20T09:40:10.498Z,43.00
2023-04-20T09:41:14.590Z,43.03
2023-04-20T09:42:18.668Z,43.08
2023-04-20T09:43:22.472Z,42.83
2023-04-20T09:44:25.996Z,42.25
2023-04-20T09:45:30.084Z,42.22
2023-04-20T09:46:35.214Z,42.04
2023-04-20T09:47:42.475Z,41.68
2023-04-20T09:48:45.845Z,40.91
2023-04-20T09:49:49.711Z,41.45
2023-04-20T09:50:53.228Z,41.84
2023-04-20T09:51:57.279Z,42.20
2023-04-20T09:53:01.905Z,42.44
2023-04-20T09:54:06.985Z,42.56
2023-04-20T09:55:10.974Z,42.59
2023-04-20T09:56:14.219Z,42.56
2023-04-20T09:57:18.550Z,42.63
2023-04-20T09:58:22.519Z,42.64
2023-04-20T09:59:26.575Z,42.71
2023-04-20T10:00:34.050Z,42.82
2023-04-20T10:01:43.931Z,42.84
2023-04-20T10:02:49.517Z,42.41
2023-04-20T10:03:57.767Z,42.39
2023-04-20T10:05:04.270Z,42.45
2023-04-20T10:06:08.440Z,41.94
2023-04-20T10:07:12.154Z,42.12
2023-04-20T10:08:16.029Z,42.53
2023-04-20T10:09:27.210Z,42.85
2023-04-20T10:10:30.859Z,43.12
2023-04-20T10:11:51.680Z,43.10
2023-04-20T10:13:02.478Z,43.05
2023-04-20T10:14:36.696Z,43.09
2023-04-20T10:15:41.549Z,43.05
2023-04-20T10:16:45.395Z,42.16
2023-04-20T10:17:48.895Z,42.55
2023-04-20T10:19:03.420Z,42.26
2023-04-20T10:20:25.968Z,42.38
2023-04-20T10:21:35.785Z,42.08
2023-04-20T10:22:40.085Z,41.99
2023-04-20T10:23:53.062Z,41.34
2023-04-20T10:24:56.904Z,41.86
2023-04-20T10:26:01.448Z,42.27
2023-04-20T10:27:05.027Z,42.06
2023-04-20T10:28:11.942Z,42.39
2023-04-20T10:29:26.277Z,42.53
2023-04-20T10:30:30.293Z,42.73
2023-04-20T10:31:40.135Z,42.91
2023-04-20T10:32:44.234Z,42.59
2023-04-20T10:33:55.188Z,42.70
2023-04-20T10:35:02.897Z,42.94
2023-04-20T10:36:06.223Z,43.24
2023-04-20T10:37:10.735Z,43.37
2023-04-20T10:38:14.674Z,43.04
2023-04-20T10:39:23.167Z,43.30
2023-04-20T10:40:29.942Z,43.04
2023-04-20T10:41:33.422Z,43.01
2023-04-20T10:42:46.871Z,42.61
2023-04-20T10:43:50.709Z,41.69
2023-04-20T10:44:55.020Z,41.56
2023-04-20T10:45:58.780Z,41.65
2023-04-20T10:47:02.878Z,41.53
2023-04-20T10:48:13.822Z,41.48
2023-04-20T10:49:18.983Z,41.63
2023-04-20T10:50:22.844Z,41.66
2023-04-20T10:51:26.902Z,41.85
2023-04-20T10:52:37.268Z,41.76
2023-04-20T10:53:40.825Z,41.86
2023-04-20T10:54:44.408Z,41.63
2023-04-20T10:55:48.505Z,41.75
2023-04-20T10:56:52.963Z,41.72
2023-04-20T10:57:56.678Z,41.90
2023-04-20T10:59:10.006Z,41.71
2023-04-20T11:00:20.949Z,41.85
2023-04-20T11:01:24.949Z,41.67
2023-04-20T11:02:29.247Z,41.77
2023-04-20T11:03:35.074Z,41.82
2023-04-20T11:04:38.624Z,41.90
2023-04-20T11:05:42.332Z,41.82
2023-04-20T11:06:47.819Z,41.85
2023-04-20T11:07:58.082Z,41.61
2023-04-20T11:09:01.874Z,41.51
2023-04-20T11:10:06.080Z,41.59
2023-04-20T11:11:22.930Z,41.25
2023-04-20T11:12:30.134Z,41.08
2023-04-20T11:13:35.289Z,41.04
2023-04-20T11:14:43.899Z,41.00
2023-04-20T11:15:47.620Z,40.07
2023-04-20T11:16:53.877Z,39.86
2023-04-20T11:17:57.441Z,39.43
2023-04-20T11:19:01.308Z,39.30
2023-04-20T11:20:12.764Z,39.27
2023-04-20T11:21:16.822Z,39.00
2023-04-20T11:22:24.169Z,39.03
2023-04-20T11:23:38.842Z,38.40
2023-04-20T11:24:45.061Z,38.13
2023-04-20T11:25:56.008Z,37.31
2023-04-20T11:27:00.028Z,37.90
2023-04-20T11:28:09.923Z,38.04
2023-04-20T11:29:13.358Z,38.22
2023-04-20T11:30:17.096Z,38.24
2023-04-20T11:31:21.450Z,38.24
2023-04-20T11:32:25.481Z,38.27
2023-04-20T11:33:30.330Z,38.49
2023-04-20T11:34:34.586Z,38.61
2023-04-20T11:35:42.968Z,38.03
2023-04-20T11:36:47.073Z,38.03
2023-04-20T11:37:52.165Z,38.07
2023-04-20T11:38:56.564Z,37.80
2023-04-20T11:40:01.318Z,38.04
2023-04-20T11:41:08.342Z,37.64
2023-04-20T11:42:14.484Z,36.95
2023-04-20T11:43:18.109Z,36.62
2023-04-20T11:44:22.352Z,36.93
2023-04-20T11:45:26.306Z,37.10
2023-04-20T11:46:30.402Z,36.74
2023-04-20T11:47:34.632Z,36.81
2023-04-20T11:48:38.860Z,36.79
2023-04-20T11:49:42.503Z,36.61
2023-04-20T11:50:46.370Z,35.86
2023-04-20T11:51:50.521Z,35.16
2023-04-20T11:52:54.552Z,34.19
2023-04-20T11:53:58.272Z,34.71
2023-04-20T11:55:01.566Z,34.32
2023-04-20T11:56:05.570Z,34.43
2023-04-20T11:57:09.606Z,33.90
2023-04-20T11:58:13.196Z,33.62
2023-04-20T11:59:21.202Z,33.58
2023-04-20T12:00:24.768Z,33.92
2023-04-20T12:01:28.253Z,34.19
2023-04-20T12:02:32.228Z,34.09
2023-04-20T12:03:36.462Z,33.98
2023-04-20T12:04:40.551Z,33.91
2023-04-20T12:05:44.725Z,33.94
2023-04-20T12:06:48.681Z,33.85
2023-04-20T12:07:53.041Z,34.02
2023-04-20T12:08:57.392Z,33.54
2023-04-20T12:10:01.241Z,33.24
2023-04-20T12:11:05.393Z,33.27
2023-04-20T12:12:12.442Z,33.01
2023-04-20T12:13:16.104Z,32.99
2023-04-20T12:14:20.605Z,33.01
2023-04-20T12:15:25.467Z,32.76
2023-04-20T12:16:29.139Z,32.58
2023-04-20T12:17:33.171Z,32.46
2023-04-20T12:18:37.157Z,32.15
2023-04-20T12:19:40.592Z,32.48
2023-04-20T12:20:44.465Z,32.72
2023-04-20T12:21:49.128Z,32.89
2023-04-20T12:22:52.952Z,32.21
2023-04-20T12:23:57.987Z,32.50
2023-04-20T12:25:02.033Z,32.53
2023-04-20T12:26:06.017Z,32.42
2023-04-20T12:27:09.170Z,32.23
2023-04-20T12:28:13.502Z,31.52
2023-04-20T12:29:17.975Z,31.79
2023-04-20T12:30:21.568Z,31.45
2023-04-20T12:31:26.656Z,31.33
2023-04-20T12:32:30.586Z,30.53
2023-04-20T12:33:34.529Z,30.50
2023-04-20T12:34:38.773Z,30.74
2023-04-20T12:35:42.650Z,31.10
2023-04-20T12:36:46.133Z,31.27
2023-04-20T12:37:49.836Z,31.15
2023-04-20T12:38:53.357Z,31.33
2023-04-20T12:39:57.578Z,31.09
2023-04-20T12:41:01.632Z,30.36
2023-04-20T12:42:05.601Z,30.06
2023-04-20T12:43:09.356Z,29.86
2023-04-20T12:44:13.917Z,29.92
2023-04-20T12:45:17.651Z,29.76
2023-04-20T12:46:21.408Z,29.37
2023-04-20T12:47:25.339Z,29.17
2023-04-20T12:48:28.655Z,29.23
2023-04-20T12:49:33.760Z,29.10
2023-04-20T12:50:37.043Z,29.08
2023-04-20T12:51:41.784Z,28.56
2023-04-20T12:52:45.190Z,28.56
2023-04-20T12:53:49.078Z,28.50
2023-04-20T12:54:53.192Z,28.69
2023-04-20T12:56:01.066Z,28.34
2023-04-20T12:57:05.940Z,28.18
2023-04-20T12:58:10.182Z,27.69
2023-04-20T12:59:13.435Z,27.68
2023-04-20T13:00:17.450Z,27.70
2023-04-20T13:01:20.625Z,27.63
2023-04-20T13:02:25.303Z,27.34
2023-04-20T13:03:28.912Z,27.16
2023-04-20T13:04:32.629Z,27.49
2023-04-20T13:05:36.236Z,27.37
2023-04-20T13:06:39.706Z,27.20
2023-04-20T13:07:43.277Z,27.10
2023-04-20T13:08:47.177Z,27.13
2023-04-20T13:09:51.092Z,27.17
2023-04-20T13:10:54.137Z,27.12
2023-04-20T13:11:58.917Z,27.13
2023-04-20T13:13:02.728Z,27.15
2023-04-20T13:14:06.295Z,27.06
2023-04-20T13:15:10.378Z,26.96
2023-04-20T13:16:14.927Z,26.70
2023-04-20T13:17:18.613Z,26.40
2023-04-20T13:18:24.713Z,26.40
2023-04-20T13:19:30.466Z,26.43
2023-04-20T13:20:34.477Z,26.35
2023-04-20T13:21:38.117Z,26.33
2023-04-20T13:22:54.551Z,26.28
2023-04-20T13:24:01.481Z,26.47
2023-04-20T13:25:05.570Z,26.40
2023-04-20T13:26:09.738Z,26.45
2023-04-20T13:27:13.399Z,26.58
2023-04-20T13:28:17.056Z,26.63
2023-04-20T13:29:20.836Z,26.57
2023-04-20T13:30:24.958Z,26.64
2023-04-20T13:31:29.245Z,26.49
2023-04-20T13:32:33.525Z,26.42
2023-04-20T13:33:37.742Z,26.49
2023-04-20T13:34:41.383Z,26.46
2023-04-20T13:35:45.343Z,26.34
2023-04-20T13:36:48.902Z,26.38
2023-04-20T13:37:52.868Z,26.25
2023-04-20T13:38:57.246Z,26.31
2023-04-20T13:40:01.394Z,26.30
2023-04-20T13:41:05.601Z,25.89
2023-04-20T13:42:08.814Z,25.47
2023-04-20T13:43:12.739Z,25.35
2023-04-20T13:44:19.478Z,25.37
2023-04-20T13:45:23.079Z,25.47
2023-04-20T13:46:26.491Z,25.54
2023-04-20T13:47:30.274Z,25.52
2023-04-20T13:48:34.629Z,25.58
2023-04-20T13:49:38.772Z,25.62
2023-04-20T13:50:42.128Z,25.59
2023-04-20T13:51:45.701Z,25.54
2023-04-20T13:52:50.513Z,25.52
2023-04-20T13:53:54.219Z,25.53
2023-04-20T13:54:58.426Z,25.53
2023-04-20T13:56:02.285Z,25.64
2023-04-20T13:57:05.537Z,25.58
2023-04-20T13:58:09.309Z,25.67
2023-04-20T13:59:13.389Z,25.61